createdAt,value
2022-10-24T00:00:50.168Z,15.24
2022-10-24T00:01:50.139Z,15.28
2022-10-24T00:02:50.163Z,15.25
2022-10-24T00:03:50.154Z,15.35
2022-10-24T00:04:50.159Z,15.37
2022-10-24T00:05:50.160Z,15.39
2022-10-24T00:06:50.165Z,15.40
2022-10-24T00:07:50.178Z,15.46
2022-10-24T00:08:50.188Z,15.43
2022-10-24T00:09:50.191Z,15.46
2022-10-24T00:10:50.199Z,15.46
2022-10-24T00:11:50.197Z,15.47
2022-10-24T00:12:50.214Z,15.43
2022-10-24T00:13:50.258Z,15.44
2022-10-24T00:14:50.219Z,15.40
2022-10-24T00:15:50.226Z,15.31
2022-10-24T00:16:50.233Z,15.43
2022-10-24T00:17:50.244Z,15.44
2022-10-24T00:18:50.262Z,15.35
2022-10-24T00:19:50.256Z,15.43
2022-10-24T00:20:50.261Z,15.35
2022-10-24T00:21:50.285Z,15.42
2022-10-24T00:22:50.282Z,15.37
2022-10-24T00:23:50.285Z,15.40
2022-10-24T00:24:50.308Z,15.46
2022-10-24T00:25:50.314Z,15.46
2022-10-24T00:26:50.333Z,15.35
2022-10-24T00:27:50.320Z,15.43
2022-10-24T00:28:50.408Z,15.43
2022-10-24T00:29:50.376Z,15.37
2022-10-24T00:30:50.344Z,15.35
2022-10-24T00:31:50.346Z,15.39
2022-10-24T00:32:50.351Z,15.36
2022-10-24T00:33:50.371Z,15.42
2022-10-24T00:34:50.369Z,15.37
2022-10-24T00:35:50.366Z,15.35
2022-10-24T00:36:50.376Z,15.31
2022-10-24T00:37:50.429Z,15.27
2022-10-24T00:38:50.439Z,15.29
2022-10-24T00:39:50.387Z,15.29
2022-10-24T00:40:50.401Z,15.25
2022-10-24T00:41:50.400Z,15.27
2022-10-24T00:42:50.412Z,15.27
2022-10-24T00:43:50.421Z,15.29
2022-10-24T00:44:50.427Z,15.24
2022-10-24T00:45:50.618Z,15.22
2022-10-24T00:46:50.440Z,15.29
2022-10-24T00:47:50.450Z,15.27
2022-10-24T00:48:50.454Z,15.36
2022-10-24T00:49:50.454Z,15.36
2022-10-24T00:50:50.460Z,15.27
2022-10-24T00:51:50.479Z,15.37
2022-10-24T00:52:50.475Z,15.27
2022-10-24T00:53:50.537Z,15.22
2022-10-24T00:54:50.498Z,15.33
2022-10-24T00:55:50.493Z,15.25
2022-10-24T00:56:50.510Z,15.28
2022-10-24T00:57:50.519Z,15.28
2022-10-24T00:58:50.524Z,15.19
2022-10-24T00:59:50.528Z,15.18
2022-10-24T01:00:50.598Z,15.22
2022-10-24T01:01:50.605Z,15.25
2022-10-24T01:02:50.545Z,15.27
2022-10-24T01:03:50.556Z,15.18
2022-10-24T01:04:50.558Z,15.22
2022-10-24T01:05:50.569Z,15.17
2022-10-24T01:06:50.577Z,15.14
2022-10-24T01:07:50.576Z,15.15
2022-10-24T01:08:50.591Z,15.21
2022-10-24T01:09:50.595Z,15.09
2022-10-24T01:10:50.605Z,15.10
2022-10-24T01:11:50.603Z,15.09
2022-10-24T01:12:50.610Z,15.09
2022-10-24T01:13:50.624Z,15.09
2022-10-24T01:14:50.622Z,15.14
2022-10-24T01:15:50.638Z,15.14
2022-10-24T01:16:50.644Z,15.10
2022-10-24T01:17:50.673Z,15.07
2022-10-24T01:18:50.711Z,15.09
2022-10-24T01:19:50.668Z,15.07
2022-10-24T01:20:50.669Z,15.07
2022-10-24T01:21:50.680Z,15.10
2022-10-24T01:22:50.683Z,15.04
2022-10-24T01:23:50.687Z,15.07
2022-10-24T01:24:50.690Z,15.03
2022-10-24T01:25:50.710Z,15.09
2022-10-24T01:26:50.710Z,15.00
2022-10-24T01:27:50.711Z,15.03
2022-10-24T01:28:50.718Z,15.03
2022-10-24T01:29:50.721Z,14.99
2022-10-24T01:30:50.731Z,14.97
2022-10-24T01:31:50.743Z,14.97
2022-10-24T01:32:50.743Z,14.94
2022-10-24T01:33:50.770Z,15.03
2022-10-24T01:34:50.761Z,14.96
2022-10-24T01:35:50.772Z,14.96
2022-10-24T01:36:50.778Z,14.97
2022-10-24T01:37:50.780Z,14.99
2022-10-24T01:38:50.789Z,15.00
2022-10-24T01:39:50.796Z,14.94
2022-10-24T01:40:50.910Z,14.96
2022-10-24T01:41:50.808Z,14.91
2022-10-24T01:42:50.815Z,14.97
2022-10-24T01:43:50.878Z,14.97
2022-10-24T01:44:50.821Z,14.92
2022-10-24T01:45:50.830Z,14.89
2022-10-24T01:46:50.833Z,14.88
2022-10-24T01:47:50.842Z,14.81
2022-10-24T01:48:50.854Z,14.91
2022-10-24T01:49:50.882Z,14.79
2022-10-24T01:50:50.867Z,14.79
2022-10-24T01:51:50.876Z,14.79
2022-10-24T01:52:50.871Z,14.77
2022-10-24T01:53:50.879Z,14.79
2022-10-24T01:54:50.885Z,14.84
2022-10-24T01:55:50.892Z,14.84
2022-10-24T01:56:50.902Z,14.77
2022-10-24T01:57:50.913Z,14.81
2022-10-24T01:58:50.910Z,14.82
2022-10-24T01:59:50.918Z,14.79
2022-10-24T02:00:50.931Z,14.72
2022-10-24T02:01:50.938Z,14.63
2022-10-24T02:02:50.939Z,14.72
2022-10-24T02:03:50.942Z,14.66
2022-10-24T02:04:50.952Z,14.66
2022-10-24T02:05:50.981Z,14.66
2022-10-24T02:06:50.963Z,14.68
2022-10-24T02:07:50.969Z,14.73
2022-10-24T02:08:51.029Z,14.70
2022-10-24T02:09:50.979Z,14.63
2022-10-24T02:10:50.989Z,14.68
2022-10-24T02:11:50.993Z,14.72
2022-10-24T02:12:51.002Z,14.68
2022-10-24T02:13:51.013Z,14.68
2022-10-24T02:14:51.020Z,14.66
2022-10-24T02:15:51.018Z,14.70
2022-10-24T02:16:51.033Z,14.66
2022-10-24T02:17:51.040Z,14.63
2022-10-24T02:18:51.044Z,14.60
2022-10-24T02:19:51.046Z,14.59
2022-10-24T02:20:51.051Z,14.68
2022-10-24T02:21:51.084Z,14.66
2022-10-24T02:22:51.070Z,14.62
2022-10-24T02:23:51.069Z,14.66
2022-10-24T02:24:51.085Z,14.62
2022-10-24T02:25:51.089Z,14.59
2022-10-24T02:26:51.090Z,14.59
2022-10-24T02:27:51.094Z,14.60
2022-10-24T02:28:51.102Z,14.65
2022-10-24T02:29:51.105Z,14.63
2022-10-24T02:30:51.114Z,14.62
2022-10-24T02:31:51.126Z,14.68
2022-10-24T02:32:51.127Z,14.59
2022-10-24T02:33:51.137Z,14.62
2022-10-24T02:34:51.138Z,14.58
2022-10-24T02:35:51.150Z,14.59
2022-10-24T02:36:51.158Z,14.63
2022-10-24T02:37:51.179Z,14.62
2022-10-24T02:38:51.161Z,14.60
2022-10-24T02:39:51.169Z,14.62
2022-10-24T02:40:51.176Z,14.63
2022-10-24T02:41:51.189Z,14.63
2022-10-24T02:42:51.188Z,14.63
2022-10-24T02:43:51.201Z,14.54
2022-10-24T02:44:51.207Z,14.60
2022-10-24T02:45:51.207Z,14.48
2022-10-24T02:46:51.212Z,14.66
2022-10-24T02:47:51.227Z,14.58
2022-10-24T02:48:51.224Z,14.60
2022-10-24T02:49:51.234Z,14.63
2022-10-24T02:51:51.243Z,14.58
2022-10-24T02:52:51.248Z,14.58
2022-10-24T02:53:51.278Z,14.69
2022-10-24T02:54:51.262Z,14.59
2022-10-24T02:55:51.267Z,14.65
2022-10-24T02:56:51.275Z,14.58
2022-10-24T02:57:51.285Z,14.62
2022-10-24T02:58:51.287Z,14.62
2022-10-24T02:59:51.300Z,14.62
2022-10-24T03:00:51.336Z,14.58
2022-10-24T03:01:51.386Z,14.63
2022-10-24T03:02:51.318Z,14.62
2022-10-24T03:03:51.323Z,14.68
2022-10-24T03:04:51.330Z,14.55
2022-10-24T03:05:51.327Z,14.45
2022-10-24T03:06:51.342Z,14.62
2022-10-24T03:07:51.340Z,14.59
2022-10-24T03:08:51.355Z,14.59
2022-10-24T03:09:51.372Z,14.60
2022-10-24T03:10:51.366Z,14.65
2022-10-24T03:11:51.379Z,14.59
2022-10-24T03:12:51.378Z,14.60
2022-10-24T03:13:51.387Z,14.55
2022-10-24T03:14:51.392Z,14.60
2022-10-24T03:15:51.397Z,14.55
2022-10-24T03:16:51.403Z,14.63
2022-10-24T03:17:51.402Z,14.63
2022-10-24T03:18:51.409Z,14.65
2022-10-24T03:19:51.415Z,14.62
2022-10-24T03:20:51.420Z,14.54
2022-10-24T03:21:51.437Z,14.54
2022-10-24T03:22:51.439Z,14.58
2022-10-24T03:23:51.448Z,14.63
2022-10-24T03:24:55.372Z,14.62
2022-10-24T03:25:51.472Z,14.59
2022-10-24T03:26:51.457Z,14.68
2022-10-24T03:27:51.471Z,14.63
2022-10-24T03:28:51.469Z,14.63
2022-10-24T03:29:51.481Z,14.66
2022-10-24T03:30:51.489Z,14.73
2022-10-24T03:31:51.495Z,14.70
2022-10-24T03:32:51.502Z,14.70
2022-10-24T03:33:51.508Z,14.66
2022-10-24T03:34:51.513Z,14.69
2022-10-24T03:35:51.519Z,14.70
2022-10-24T03:36:51.520Z,14.77
2022-10-24T03:37:51.530Z,14.69
2022-10-24T03:38:51.539Z,14.73
2022-10-24T03:39:51.546Z,14.79
2022-10-24T03:40:51.557Z,14.81
2022-10-24T03:41:51.569Z,14.79
2022-10-24T03:42:51.558Z,14.84
2022-10-24T03:43:51.568Z,14.85
2022-10-24T03:44:51.576Z,14.88
2022-10-24T03:45:51.573Z,14.97
2022-10-24T03:46:51.587Z,14.94
2022-10-24T03:47:51.589Z,14.94
2022-10-24T03:48:51.674Z,15.07
2022-10-24T03:49:51.608Z,15.07
2022-10-24T03:50:51.612Z,15.10
2022-10-24T03:51:51.621Z,15.03
2022-10-24T03:52:51.618Z,15.09
2022-10-24T03:53:51.632Z,15.17
2022-10-24T03:54:51.631Z,15.15
2022-10-24T03:55:51.636Z,15.28
2022-10-24T03:56:51.651Z,15.25
2022-10-24T03:57:51.672Z,15.31
2022-10-24T03:58:51.660Z,15.21
2022-10-24T03:59:51.669Z,15.25
2022-10-24T04:00:51.720Z,15.25
2022-10-24T04:01:51.708Z,15.27
2022-10-24T04:02:51.688Z,15.24
2022-10-24T04:03:51.690Z,15.25
2022-10-24T04:04:51.693Z,15.19
2022-10-24T04:05:51.702Z,15.29
2022-10-24T04:06:51.711Z,15.21
2022-10-24T04:07:51.712Z,15.24
2022-10-24T04:08:51.725Z,15.22
2022-10-24T04:09:51.733Z,15.19
2022-10-24T04:10:51.730Z,15.18
2022-10-24T04:11:51.746Z,15.19
2022-10-24T04:12:51.745Z,15.18
2022-10-24T04:13:51.826Z,15.25
2022-10-24T04:14:51.763Z,15.21
2022-10-24T04:15:51.763Z,15.28
2022-10-24T04:16:51.775Z,15.27
2022-10-24T04:17:51.783Z,15.22
2022-10-24T04:18:51.780Z,15.31
2022-10-24T04:19:51.789Z,15.29
2022-10-24T04:20:51.803Z,15.31
2022-10-24T04:21:51.798Z,15.35
2022-10-24T04:22:51.813Z,15.39
2022-10-24T04:23:51.819Z,15.40
2022-10-24T04:24:51.824Z,15.33
2022-10-24T04:25:51.823Z,15.46
2022-10-24T04:26:51.833Z,15.42
2022-10-24T04:27:51.836Z,15.46
2022-10-24T04:28:51.851Z,15.44
2022-10-24T04:29:51.877Z,15.46
2022-10-24T04:30:51.857Z,15.37
2022-10-24T04:31:51.862Z,15.40
2022-10-24T04:32:51.877Z,15.51
2022-10-24T04:33:51.881Z,15.49
2022-10-24T04:34:51.889Z,15.46
2022-10-24T04:35:51.895Z,15.51
2022-10-24T04:36:51.897Z,15.51
2022-10-24T04:37:51.899Z,15.46
2022-10-24T04:38:51.955Z,15.46
2022-10-24T04:39:51.922Z,15.52
2022-10-24T04:40:51.927Z,15.43
2022-10-24T04:41:51.926Z,15.43
2022-10-24T04:42:52.940Z,15.47
2022-10-24T04:43:51.940Z,15.44
2022-10-24T04:44:51.952Z,15.44
2022-10-24T04:45:51.976Z,15.51
2022-10-24T04:46:51.958Z,15.44
2022-10-24T04:47:51.976Z,15.44
2022-10-24T04:48:51.971Z,15.51
2022-10-24T04:49:51.977Z,15.51
2022-10-24T04:50:51.989Z,15.44
2022-10-24T04:51:51.998Z,15.54
2022-10-24T04:52:52.005Z,15.51
2022-10-24T04:53:52.011Z,15.44
2022-10-24T04:54:52.008Z,15.51
2022-10-24T04:55:52.014Z,15.47
2022-10-24T04:56:52.023Z,15.43
2022-10-24T04:57:52.027Z,15.44
2022-10-24T04:58:52.042Z,15.49
2022-10-24T04:59:52.047Z,15.47
2022-10-24T05:00:52.057Z,15.42
2022-10-24T05:01:52.246Z,15.46
2022-10-24T05:02:54.139Z,15.44
2022-10-24T05:03:52.147Z,15.35
2022-10-24T05:04:52.080Z,15.43
2022-10-24T05:05:52.077Z,15.44
2022-10-24T05:06:52.085Z,15.44
2022-10-24T05:07:52.099Z,15.44
2022-10-24T05:08:52.103Z,15.43
2022-10-24T05:09:52.105Z,15.39
2022-10-24T05:10:52.119Z,15.43
2022-10-24T05:11:52.116Z,15.44
2022-10-24T05:12:52.130Z,15.36
2022-10-24T05:13:52.137Z,15.28
2022-10-24T05:14:52.135Z,15.29
2022-10-24T05:15:52.150Z,15.22
2022-10-24T05:16:52.151Z,15.22
2022-10-24T05:17:52.182Z,15.22
2022-10-24T05:18:52.169Z,15.27
2022-10-24T05:19:52.169Z,15.28
2022-10-24T05:20:52.181Z,15.28
2022-10-24T05:21:52.189Z,15.21
2022-10-24T05:22:52.197Z,15.25
2022-10-24T05:23:52.194Z,15.24
2022-10-24T05:24:52.200Z,15.28
2022-10-24T05:25:52.208Z,15.22
2022-10-24T05:26:52.213Z,15.22
2022-10-24T05:27:52.226Z,15.24
2022-10-24T05:28:52.733Z,15.21
2022-10-24T05:29:52.240Z,15.27
2022-10-24T05:30:52.250Z,15.24
2022-10-24T05:31:52.253Z,15.29
2022-10-24T05:32:52.258Z,15.22
2022-10-24T05:33:52.293Z,15.25
2022-10-24T05:34:52.270Z,15.29
2022-10-24T05:35:52.274Z,15.27
2022-10-24T05:36:52.284Z,15.25
2022-10-24T05:37:52.285Z,15.31
2022-10-24T05:38:52.296Z,15.36
2022-10-24T05:39:52.303Z,15.44
2022-10-24T05:40:52.302Z,15.44
2022-10-24T05:41:55.315Z,15.37
2022-10-24T05:42:52.319Z,15.44
2022-10-24T05:43:52.322Z,15.44
2022-10-24T05:44:52.336Z,15.46
2022-10-24T05:45:52.335Z,15.49
2022-10-24T05:46:52.346Z,15.43
2022-10-24T05:47:52.355Z,15.44
2022-10-24T05:48:52.362Z,15.47
2022-10-24T05:49:52.396Z,15.44
2022-10-24T05:50:52.372Z,15.55
2022-10-24T05:51:52.372Z,15.58
2022-10-24T05:52:52.378Z,15.59
2022-10-24T05:53:52.393Z,15.59
2022-10-24T05:55:06.401Z,15.57
2022-10-24T05:55:52.404Z,15.59
2022-10-24T05:56:52.404Z,15.61
2022-10-24T05:57:52.418Z,15.58
2022-10-24T05:58:52.424Z,15.73
2022-10-24T05:59:52.425Z,15.62
2022-10-24T06:00:54.102Z,15.59
2022-10-24T06:01:52.561Z,15.65
2022-10-24T06:02:52.450Z,15.67
2022-10-24T06:03:52.456Z,15.65
2022-10-24T06:04:52.466Z,15.67
2022-10-24T06:05:52.493Z,15.76
2022-10-24T06:06:52.478Z,15.73
2022-10-24T06:07:52.484Z,15.73
2022-10-24T06:08:52.483Z,15.79
2022-10-24T06:09:52.495Z,15.82
2022-10-24T06:10:52.506Z,15.84
2022-10-24T06:11:52.502Z,15.84
2022-10-24T06:12:52.509Z,15.82
2022-10-24T06:13:52.514Z,15.90
2022-10-24T06:14:52.522Z,15.86
2022-10-24T06:15:52.535Z,15.95
2022-10-24T06:16:52.536Z,15.95
2022-10-24T06:17:52.540Z,15.97
2022-10-24T06:18:52.549Z,16.02
2022-10-24T06:19:52.564Z,16.02
2022-10-24T06:20:54.167Z,16.08
2022-10-24T06:21:52.597Z,15.97
2022-10-24T06:22:52.572Z,16.04
2022-10-24T06:23:52.580Z,16.00
2022-10-24T06:24:52.587Z,16.02
2022-10-24T06:25:52.600Z,16.04
2022-10-24T06:26:52.598Z,16.12
2022-10-24T06:27:52.608Z,16.05
2022-10-24T06:28:52.620Z,16.08
2022-10-24T06:29:52.629Z,16.10
2022-10-24T06:30:52.633Z,16.13
2022-10-24T06:31:52.634Z,16.17
2022-10-24T06:32:52.646Z,16.20
2022-10-24T06:33:52.647Z,16.21
2022-10-24T06:34:52.654Z,16.26
2022-10-24T06:35:52.661Z,16.21
2022-10-24T06:36:52.673Z,16.23
2022-10-24T06:37:53.167Z,16.24
2022-10-24T06:38:52.681Z,16.23
2022-10-24T06:39:52.688Z,16.26
2022-10-24T06:40:52.695Z,16.26
2022-10-24T06:41:52.707Z,16.26
2022-10-24T06:42:52.715Z,16.32
2022-10-24T06:43:52.714Z,16.35
2022-10-24T06:44:52.762Z,16.36
2022-10-24T06:45:52.726Z,16.42
2022-10-24T06:46:52.742Z,16.28
2022-10-24T06:47:54.284Z,16.47
2022-10-24T06:48:52.749Z,16.46
2022-10-24T06:49:52.761Z,16.49
2022-10-24T06:50:52.761Z,16.51
2022-10-24T06:51:52.768Z,16.50
2022-10-24T06:52:52.775Z,16.54
2022-10-24T06:53:52.809Z,16.54
2022-10-24T06:54:52.795Z,16.51
2022-10-24T06:55:52.796Z,16.61
2022-10-24T06:56:52.802Z,16.54
2022-10-24T06:57:52.810Z,16.56
2022-10-24T06:58:52.815Z,16.57
2022-10-24T06:59:52.825Z,16.60
2022-10-24T07:00:52.905Z,16.61
2022-10-24T07:01:53.028Z,16.64
2022-10-24T07:02:52.849Z,16.60
2022-10-24T07:03:52.853Z,16.58
2022-10-24T07:04:52.863Z,16.68
2022-10-24T07:05:52.870Z,16.61
2022-10-24T07:06:52.868Z,16.57
2022-10-24T07:07:52.884Z,16.61
2022-10-24T07:08:52.890Z,16.61
2022-10-24T07:09:52.912Z,16.54
2022-10-24T07:10:52.896Z,16.57
2022-10-24T07:11:52.905Z,16.56
2022-10-24T07:12:52.919Z,16.58
2022-10-24T07:13:55.321Z,16.53
2022-10-24T07:14:52.924Z,16.60
2022-10-24T07:15:52.933Z,16.61
2022-10-24T07:16:52.947Z,16.61
2022-10-24T07:17:52.945Z,16.64
2022-10-24T07:18:52.953Z,16.60
2022-10-24T07:19:52.970Z,16.56
2022-10-24T07:20:52.968Z,16.66
2022-10-24T07:21:52.972Z,16.58
2022-10-24T07:22:52.982Z,16.60
2022-10-24T07:23:52.987Z,16.64
2022-10-24T07:24:53.003Z,16.74
2022-10-24T07:25:53.029Z,16.75
2022-10-24T07:26:53.009Z,16.78
2022-10-24T07:27:53.014Z,16.76
2022-10-24T07:28:53.056Z,16.86
2022-10-24T07:29:53.035Z,16.81
2022-10-24T07:30:53.036Z,16.84
2022-10-24T07:31:53.051Z,16.84
2022-10-24T07:32:53.057Z,16.74
2022-10-24T07:33:53.066Z,16.83
2022-10-24T07:34:53.064Z,16.83
2022-10-24T07:35:53.081Z,16.79
2022-10-24T07:36:53.078Z,16.76
2022-10-24T07:37:53.095Z,16.79
2022-10-24T07:38:53.091Z,16.93
2022-10-24T07:39:53.107Z,16.76
2022-10-24T07:40:53.106Z,16.79
2022-10-24T07:41:53.135Z,16.79
2022-10-24T07:42:53.119Z,16.91
2022-10-24T07:43:53.128Z,16.83
2022-10-24T07:44:53.142Z,16.90
2022-10-24T07:45:53.182Z,16.97
2022-10-24T07:46:53.151Z,16.94
2022-10-24T07:47:53.156Z,16.96
2022-10-24T07:49:35.711Z,16.96
2022-10-24T07:50:35.713Z,16.99
2022-10-24T07:51:35.729Z,17.04
2022-10-24T07:52:35.734Z,17.06
2022-10-24T07:53:35.744Z,17.05
2022-10-24T07:54:37.326Z,17.05
2022-10-24T07:55:35.753Z,17.05
2022-10-24T07:56:35.755Z,17.04
2022-10-24T07:57:35.791Z,17.01
2022-10-24T07:58:35.771Z,17.02
2022-10-24T07:59:43.106Z,17.12
2022-10-24T08:00:35.785Z,17.11
2022-10-24T08:01:35.816Z,17.05
2022-10-24T08:02:35.908Z,17.05
2022-10-24T08:03:35.816Z,17.11
2022-10-24T08:04:35.816Z,17.09
2022-10-24T08:05:35.828Z,17.22
2022-10-24T08:06:35.831Z,17.14
2022-10-24T08:07:35.845Z,17.19
2022-10-24T08:08:37.388Z,17.24
2022-10-24T08:09:35.858Z,17.26
2022-10-24T08:10:35.866Z,17.20
2022-10-24T08:11:35.865Z,17.24
2022-10-24T08:12:35.874Z,17.26
2022-10-24T08:13:35.908Z,17.20
2022-10-24T08:14:35.897Z,17.20
2022-10-24T08:15:35.898Z,17.20
2022-10-24T08:16:35.912Z,17.20
2022-10-24T08:17:35.910Z,17.20
2022-10-24T08:18:39.437Z,17.20
2022-10-24T08:19:35.938Z,17.22
2022-10-24T08:20:35.934Z,17.26
2022-10-24T08:21:35.948Z,17.30
2022-10-24T08:22:35.948Z,17.27
2022-10-24T08:23:35.967Z,17.27
2022-10-24T08:24:35.963Z,17.30
2022-10-24T08:25:35.970Z,17.33
2022-10-24T08:26:35.988Z,17.30
2022-10-24T08:27:36.003Z,17.24
2022-10-24T08:28:35.994Z,17.31
2022-10-24T08:29:36.028Z,17.24
2022-10-24T08:30:36.009Z,17.24
2022-10-24T08:31:36.023Z,17.31
2022-10-24T08:32:36.031Z,17.29
2022-10-24T08:33:36.031Z,17.38
2022-10-24T08:34:36.047Z,17.27
2022-10-24T08:35:36.053Z,17.24
2022-10-24T08:36:36.054Z,17.30
2022-10-24T08:38:36.071Z,17.34
2022-10-24T08:39:36.086Z,17.34
2022-10-24T08:40:36.083Z,17.33
2022-10-24T08:41:36.100Z,17.33
2022-10-24T08:42:36.099Z,17.38
2022-10-24T08:43:36.114Z,17.34
2022-10-24T08:44:36.120Z,17.34
2022-10-24T08:45:36.143Z,17.42
2022-10-24T08:46:36.147Z,17.39
2022-10-24T08:48:36.144Z,17.42
2022-10-24T08:49:36.153Z,17.45
2022-10-24T08:50:36.163Z,17.45
2022-10-24T08:51:36.179Z,17.45
2022-10-24T08:52:36.184Z,17.45
2022-10-24T08:53:36.193Z,17.51
2022-10-24T08:54:36.192Z,17.44
2022-10-24T08:55:48.914Z,17.46
2022-10-24T08:56:36.208Z,17.52
2022-10-24T08:57:36.219Z,17.49
2022-10-24T08:58:36.231Z,17.45
2022-10-24T08:59:36.239Z,17.46
2022-10-24T09:00:36.243Z,17.46
2022-10-24T09:01:36.381Z,17.48
2022-10-24T09:02:36.403Z,17.46
2022-10-24T09:03:55.145Z,17.42
2022-10-24T09:04:36.279Z,17.46
2022-10-24T09:05:36.285Z,17.44
2022-10-24T09:06:36.293Z,17.45
2022-10-24T09:07:36.297Z,17.48
2022-10-24T09:08:36.304Z,17.56
2022-10-24T09:09:36.318Z,17.59
2022-10-24T09:10:36.319Z,17.57
2022-10-24T09:11:36.327Z,17.67
2022-10-24T09:12:36.332Z,17.59
2022-10-24T09:13:36.349Z,17.64
2022-10-24T09:14:36.349Z,17.57
2022-10-24T09:15:36.357Z,17.57
2022-10-24T09:16:36.368Z,17.70
2022-10-24T09:17:36.395Z,17.71
2022-10-24T09:18:36.380Z,17.74
2022-10-24T09:19:36.391Z,17.76
2022-10-24T09:20:36.396Z,17.74
2022-10-24T09:21:36.404Z,17.76
2022-10-24T09:22:38.454Z,17.72
2022-10-24T09:23:36.422Z,17.74
2022-10-24T09:24:36.435Z,17.71
2022-10-24T09:25:36.440Z,17.72
2022-10-24T09:26:36.453Z,17.76
2022-10-24T09:27:36.459Z,17.74
2022-10-24T09:28:36.468Z,17.87
2022-10-24T09:29:36.468Z,17.82
2022-10-24T09:30:36.478Z,17.83
2022-10-24T09:31:36.486Z,17.83
2022-10-24T09:32:36.494Z,17.86
2022-10-24T09:33:36.522Z,17.85
2022-10-24T09:34:36.516Z,17.87
2022-10-24T09:35:36.526Z,17.86
2022-10-24T09:36:36.531Z,17.86
2022-10-24T09:37:41.315Z,17.90
2022-10-24T09:38:36.542Z,17.92
2022-10-24T09:39:36.550Z,17.95
2022-10-24T09:40:36.560Z,18.01
2022-10-24T09:41:36.568Z,18.01
2022-10-24T09:42:36.573Z,18.13
2022-10-24T09:43:36.591Z,18.05
2022-10-24T09:44:36.589Z,18.15
2022-10-24T09:45:36.601Z,18.20
2022-10-24T09:48:14.261Z,18.26
2022-10-24T09:49:14.293Z,18.26
2022-10-24T09:50:14.276Z,18.28
2022-10-24T09:51:14.284Z,18.40
2022-10-24T09:52:14.292Z,18.31
2022-10-24T09:53:14.306Z,18.43
2022-10-24T09:54:14.308Z,18.40
2022-10-24T09:55:14.328Z,18.47
2022-10-24T09:56:14.333Z,18.44
2022-10-24T09:58:14.347Z,18.59
2022-10-24T09:59:14.350Z,18.58
2022-10-24T10:00:14.365Z,18.43
2022-10-24T10:01:14.466Z,18.47
2022-10-24T10:02:14.510Z,18.45
2022-10-24T10:03:14.383Z,18.43
2022-10-24T10:04:17.184Z,18.47
2022-10-24T10:05:14.444Z,18.45
2022-10-24T10:06:14.445Z,18.45
2022-10-24T10:07:14.460Z,18.49
2022-10-24T10:08:14.434Z,18.47
2022-10-24T10:09:14.439Z,18.50
2022-10-24T10:10:14.464Z,18.50
2022-10-24T10:11:14.459Z,18.55
2022-10-24T10:12:14.469Z,18.50
2022-10-24T10:13:14.475Z,18.47
2022-10-24T10:14:14.480Z,18.50
2022-10-24T10:15:14.486Z,18.50
2022-10-24T10:16:16.023Z,18.59
2022-10-24T10:17:14.509Z,18.50
2022-10-24T10:18:14.519Z,18.55
2022-10-24T10:19:14.529Z,18.49
2022-10-24T10:20:17.370Z,18.55
2022-10-24T10:21:14.565Z,18.52
2022-10-24T10:22:14.554Z,18.56
2022-10-24T10:23:14.553Z,18.53
2022-10-24T10:24:14.572Z,18.53
2022-10-24T10:26:14.582Z,18.55
2022-10-24T10:27:14.589Z,18.60
2022-10-24T10:28:14.606Z,18.55
2022-10-24T10:29:14.613Z,18.58
2022-10-24T10:30:14.704Z,18.56
2022-10-24T10:31:14.623Z,18.60
2022-10-24T10:32:14.638Z,18.63
2022-10-24T10:33:14.641Z,18.56
2022-10-24T10:34:16.220Z,18.59
2022-10-24T10:35:14.664Z,18.58
2022-10-24T10:36:14.678Z,18.58
2022-10-24T10:37:14.704Z,18.65
2022-10-24T10:38:14.683Z,18.58
2022-10-24T10:39:14.698Z,18.63
2022-10-24T10:40:14.857Z,18.59
2022-10-24T10:41:14.708Z,18.58
2022-10-24T10:42:14.757Z,18.60
2022-10-24T10:43:14.734Z,18.62
2022-10-24T10:44:14.743Z,18.58
2022-10-24T10:45:14.755Z,18.60
2022-10-24T10:46:14.751Z,18.55
2022-10-24T10:47:14.760Z,18.58
2022-10-24T10:48:14.778Z,18.59
2022-10-24T10:49:14.779Z,18.58
2022-10-24T10:50:14.907Z,18.53
2022-10-24T10:51:14.796Z,18.56
2022-10-24T10:52:14.812Z,18.60
2022-10-24T10:53:14.840Z,18.60
2022-10-24T10:54:14.826Z,18.62
2022-10-24T10:55:14.827Z,18.63
2022-10-24T10:56:14.847Z,18.62
2022-10-24T10:57:14.844Z,18.70
2022-10-24T10:58:14.863Z,18.66
2022-10-24T10:59:14.871Z,18.65
2022-10-24T11:00:14.874Z,18.65
2022-10-24T11:01:14.999Z,18.66
2022-10-24T11:02:15.077Z,18.74
2022-10-24T11:03:14.905Z,18.66
2022-10-24T11:04:14.911Z,18.71
2022-10-24T11:05:14.920Z,18.70
2022-10-24T11:06:14.921Z,18.78
2022-10-24T11:07:14.932Z,18.75
2022-10-24T11:08:18.469Z,18.74
2022-10-24T11:09:14.967Z,18.77
2022-10-24T11:10:14.963Z,18.80
2022-10-24T11:11:14.982Z,18.75
2022-10-24T11:12:14.978Z,18.88
2022-10-24T11:13:14.982Z,18.81
2022-10-24T11:14:14.990Z,18.90
2022-10-24T11:15:15.067Z,18.80
2022-10-24T11:16:15.017Z,18.86
2022-10-24T11:17:15.016Z,18.84
2022-10-24T11:18:15.032Z,18.78
2022-10-24T11:19:15.035Z,18.80
2022-10-24T11:20:15.054Z,18.78
2022-10-24T11:21:15.058Z,18.83
2022-10-24T11:22:15.060Z,18.86
2022-10-24T11:23:15.078Z,18.89
2022-10-24T11:24:15.080Z,18.98
2022-10-24T11:25:15.110Z,18.98
2022-10-24T11:26:15.100Z,19.07
2022-10-24T11:27:15.105Z,19.09
2022-10-24T11:28:15.122Z,19.09
2022-10-24T11:29:15.128Z,19.11
2022-10-24T11:30:15.130Z,19.12
2022-10-24T11:31:15.140Z,19.16
2022-10-24T11:32:15.159Z,19.21
2022-10-24T11:33:15.157Z,19.16
2022-10-24T11:34:15.167Z,19.22
2022-10-24T11:35:15.177Z,19.34
2022-10-24T11:36:15.188Z,19.39
2022-10-24T11:37:15.199Z,19.37
2022-10-24T11:38:15.204Z,19.41
2022-10-24T11:39:15.212Z,19.52
2022-10-24T11:40:15.286Z,19.59
2022-10-24T11:41:15.260Z,19.59
2022-10-24T11:42:15.250Z,19.71
2022-10-24T11:43:15.252Z,19.77
2022-10-24T11:44:15.265Z,19.71
2022-10-24T11:45:15.268Z,19.92
2022-10-24T11:46:15.287Z,19.92
2022-10-24T11:47:15.294Z,20.07
2022-10-24T11:48:17.991Z,20.22
2022-10-24T11:49:15.314Z,20.16
2022-10-24T11:50:15.324Z,20.29
2022-10-24T11:54:43.774Z,20.39
2022-10-24T11:55:43.791Z,20.43
2022-10-24T11:56:43.812Z,20.47
2022-10-24T11:58:36.376Z,20.82
2022-10-24T12:09:50.613Z,22.28
2022-10-24T12:10:51.639Z,22.51
2022-10-24T12:26:22.369Z,22.29
2022-10-24T12:27:19.738Z,22.30
2022-10-24T12:28:20.761Z,22.25
2022-10-24T12:29:19.760Z,22.14
2022-10-24T12:30:19.774Z,22.17
2022-10-24T12:31:22.415Z,22.20
2022-10-24T12:32:19.791Z,22.11
2022-10-24T12:34:17.387Z,22.11
2022-10-24T14:03:49.203Z,21.57
2022-10-24T14:04:49.189Z,21.60
2022-10-24T14:05:49.207Z,21.61
2022-10-24T14:06:49.217Z,21.51
2022-10-24T14:07:49.219Z,21.46
2022-10-24T14:09:02.417Z,21.50
2022-10-24T14:09:49.302Z,21.50
2022-10-24T14:10:49.262Z,21.46
2022-10-24T14:11:49.289Z,21.48
2022-10-24T14:12:49.310Z,21.54
2022-10-24T14:13:49.295Z,21.54
2022-10-24T14:14:49.307Z,21.57
2022-10-24T14:15:49.311Z,21.58
2022-10-24T14:16:49.322Z,21.51
2022-10-24T14:17:49.336Z,21.61
2022-10-24T14:18:49.347Z,21.51
2022-10-24T14:19:52.948Z,21.55
2022-10-24T14:20:49.375Z,21.60
2022-10-24T14:21:49.380Z,21.57
2022-10-24T14:22:49.399Z,21.66
2022-10-24T14:23:49.411Z,21.64
2022-10-24T14:24:49.423Z,21.60
2022-10-24T14:25:49.427Z,21.57
2022-10-24T14:26:49.438Z,21.57
2022-10-24T14:27:49.455Z,21.48
2022-10-24T14:28:50.771Z,21.48
2022-10-24T14:29:49.473Z,21.45
2022-10-24T14:30:49.491Z,21.37
2022-10-24T14:31:49.496Z,21.36
2022-10-24T14:32:49.510Z,21.33
2022-10-24T14:33:49.529Z,21.32
2022-10-24T14:34:49.609Z,21.24
2022-10-24T14:35:52.314Z,21.20
2022-10-24T14:36:49.559Z,21.18
2022-10-24T14:37:49.565Z,21.15
2022-10-24T14:38:49.590Z,21.15
2022-10-24T14:39:49.587Z,21.17
2022-10-24T14:41:01.171Z,21.15
2022-10-24T14:41:49.610Z,21.07
2022-10-24T14:42:49.632Z,21.09
2022-10-24T14:43:49.638Z,21.11
2022-10-24T14:44:49.650Z,20.97
2022-10-24T14:45:49.664Z,21.03
2022-10-24T14:46:49.672Z,21.00
2022-10-24T14:47:49.686Z,20.96
2022-10-24T14:48:49.694Z,20.95
2022-10-24T14:49:49.729Z,20.97
2022-10-24T14:50:49.708Z,20.87
2022-10-24T14:51:49.805Z,20.84
2022-10-24T14:52:49.740Z,20.80
2022-10-24T14:53:49.743Z,20.84
2022-10-24T14:54:49.758Z,20.80
2022-10-24T14:55:49.770Z,20.81
2022-10-24T14:56:49.775Z,20.84
2022-10-24T14:57:49.786Z,20.81
2022-10-24T14:58:49.802Z,20.77